sensor_id;sensor_type;location;lat;lon;timestamp;temperature;humidity
20366;DHT22;10341;49.894;8.822;2022-09-09T00:04:27;15.10;99.90
20366;DHT22;10341;49.894;8.822;2022-09-09T00:21:10;15.20;99.90
20366;DHT22;10341;49.894;8.822;2022-09-09T00:26:35;15.20;99.90
20366;DHT22;10341;49.894;8.822;2022-09-09T00:32:13;15.00;99.90
20366;DHT22;10341;49.894;8.822;2022-09-09T00:37:34;14.90;99.90
20366;DHT22;10341;49.894;8.822;2022-09-09T00:59:50;15.10;99.90
20366;DHT22;10341;49.894;8.822;2022-09-09T01:10:50;15.70;99.90
20366;DHT22;10341;49.894;8.822;2022-09-09T01:16:11;15.80;99.90
20366;DHT22;10341;49.894;8.822;2022-09-09T01:22:35;15.90;99.90
20366;DHT22;10341;49.894;8.822;2022-09-09T01:27:35;15.70;99.90
20366;DHT22;10341;49.894;8.822;2022-09-09T01:32:58;15.50;99.90
20366;DHT22;10341;49.894;8.822;2022-09-09T01:38:21;15.20;99.90
20366;DHT22;10341;49.894;8.822;2022-09-09T01:43:44;15.10;99.90
20366;DHT22;10341;49.894;8.822;2022-09-09T01:49:06;15.00;99.90
20366;DHT22;10341;49.894;8.822;2022-09-09T01:54:29;14.90;99.90
20366;DHT22;10341;49.894;8.822;2022-09-09T02:00:04;14.80;99.90
20366;DHT22;10341;49.894;8.822;2022-09-09T02:05:42;14.80;99.90
20366;DHT22;10341;49.894;8.822;2022-09-09T02:11:21;14.80;99.90
20366;DHT22;10341;49.894;8.822;2022-09-09T02:16:58;14.80;99.90
20366;DHT22;10341;49.894;8.822;2022-09-09T02:22:31;14.70;99.90
20366;DHT22;10341;49.894;8.822;2022-09-09T02:27:53;14.70;99.90
20366;DHT22;10341;49.894;8.822;2022-09-09T02:33:14;14.70;99.90
20366;DHT22;10341;49.894;8.822;2022-09-09T02:38:45;14.80;99.90
20366;DHT22;10341;49.894;8.822;2022-09-09T02:44:14;14.80;99.90
20366;DHT22;10341;49.894;8.822;2022-09-09T02:50:07;14.80;99.90
20366;DHT22;10341;49.894;8.822;2022-09-09T02:55:47;14.90;99.90
20366;DHT22;10341;49.894;8.822;2022-09-09T03:01:11;15.40;99.90
20366;DHT22;10341;49.894;8.822;2022-09-09T03:06:30;15.60;99.90
20366;DHT22;10341;49.894;8.822;2022-09-09T03:11:59;15.80;99.90
20366;DHT22;10341;49.894;8.822;2022-09-09T03:17:20;16.00;99.90
20366;DHT22;10341;49.894;8.822;2022-09-09T03:22:45;16.10;99.90
20366;DHT22;10341;49.894;8.822;2022-09-09T03:28:04;16.30;99.90
20366;DHT22;10341;49.894;8.822;2022-09-09T03:33:24;16.30;99.90
20366;DHT22;10341;49.894;8.822;2022-09-09T03:38:44;16.10;99.90
20366;DHT22;10341;49.894;8.822;2022-09-09T03:44:05;16.10;99.90
20366;DHT22;10341;49.894;8.822;2022-09-09T03:49:30;16.10;99.90
20366;DHT22;10341;49.894;8.822;2022-09-09T03:54:51;16.00;99.90
20366;DHT22;10341;49.894;8.822;2022-09-09T04:00:10;16.00;99.90
20366;DHT22;10341;49.894;8.822;2022-09-09T04:05:36;15.90;99.90
20366;DHT22;10341;49.894;8.822;2022-09-09T04:10:59;15.90;99.90
20366;DHT22;10341;49.894;8.822;2022-09-09T04:16:21;15.80;99.90
20366;DHT22;10341;49.894;8.822;2022-09-09T04:21:41;15.70;99.90
20366;DHT22;10341;49.894;8.822;2022-09-09T04:27:00;15.70;99.90
20366;DHT22;10341;49.894;8.822;2022-09-09T04:32:20;15.70;99.90
20366;DHT22;10341;49.894;8.822;2022-09-09T04:37:40;15.70;99.90
20366;DHT22;10341;49.894;8.822;2022-09-09T04:43:01;15.90;99.90
20366;DHT22;10341;49.894;8.822;2022-09-09T04:48:22;15.90;99.90
20366;DHT22;10341;49.894;8.822;2022-09-09T04:53:42;15.70;99.90
20366;DHT22;10341;49.894;8.822;2022-09-09T04:59:04;15.60;99.90
20366;DHT22;10341;49.894;8.822;2022-09-09T05:04:32;15.60;99.90
20366;DHT22;10341;49.894;8.822;2022-09-09T05:09:52;15.60;99.90
20366;DHT22;10341;49.894;8.822;2022-09-09T05:15:11;15.70;99.90
20366;DHT22;10341;49.894;8.822;2022-09-09T05:20:31;15.80;99.90
20366;DHT22;10341;49.894;8.822;2022-09-09T05:25:57;16.00;99.90
20366;DHT22;10341;49.894;8.822;2022-09-09T05:31:17;16.20;99.90
20366;DHT22;10341;49.894;8.822;2022-09-09T05:36:39;16.40;99.90
20366;DHT22;10341;49.894;8.822;2022-09-09T05:41:59;16.50;99.90
20366;DHT22;10341;49.894;8.822;2022-09-09T05:47:18;16.50;99.90
20366;DHT22;10341;49.894;8.822;2022-09-09T05:52:38;16.50;99.90
20366;DHT22;10341;49.894;8.822;2022-09-09T05:57:58;16.50;99.90
20366;DHT22;10341;49.894;8.822;2022-09-09T06:03:19;16.50;99.90
20366;DHT22;10341;49.894;8.822;2022-09-09T06:08:44;16.50;99.90
20366;DHT22;10341;49.894;8.822;2022-09-09T06:14:06;16.40;99.90
20366;DHT22;10341;49.894;8.822;2022-09-09T06:19:25;16.60;99.90
20366;DHT22;10341;49.894;8.822;2022-09-09T06:24:46;16.90;99.90
20366;DHT22;10341;49.894;8.822;2022-09-09T06:30:06;17.20;99.90
20366;DHT22;10341;49.894;8.822;2022-09-09T06:35:26;17.50;99.90
20366;DHT22;10341;49.894;8.822;2022-09-09T06:40:53;17.90;99.90
20366;DHT22;10341;49.894;8.822;2022-09-09T06:46:20;18.10;99.90
20366;DHT22;10341;49.894;8.822;2022-09-09T06:51:47;18.20;99.90
20366;DHT22;10341;49.894;8.822;2022-09-09T06:57:07;18.30;99.90
20366;DHT22;10341;49.894;8.822;2022-09-09T07:02:27;18.30;99.90
20366;DHT22;10341;49.894;8.822;2022-09-09T07:07:47;18.30;99.90
20366;DHT22;10341;49.894;8.822;2022-09-09T07:13:11;18.40;99.90
20366;DHT22;10341;49.894;8.822;2022-09-09T07:18:31;18.50;99.90
20366;DHT22;10341;49.894;8.822;2022-09-09T07:23:51;18.40;99.90
20366;DHT22;10341;49.894;8.822;2022-09-09T07:29:10;18.20;99.90
20366;DHT22;10341;49.894;8.822;2022-09-09T07:34:33;18.20;99.90
20366;DHT22;10341;49.894;8.822;2022-09-09T07:39:53;18.10;99.90
20366;DHT22;10341;49.894;8.822;2022-09-09T07:45:12;18.10;99.90
20366;DHT22;10341;49.894;8.822;2022-09-09T07:50:33;18.20;99.90
20366;DHT22;10341;49.894;8.822;2022-09-09T07:55:53;18.30;99.90
20366;DHT22;10341;49.894;8.822;2022-09-09T08:01:20;18.40;99.90
20366;DHT22;10341;49.894;8.822;2022-09-09T08:06:43;18.50;99.90
20366;DHT22;10341;49.894;8.822;2022-09-09T08:12:03;18.70;99.90
20366;DHT22;10341;49.894;8.822;2022-09-09T08:17:24;18.80;99.90
20366;DHT22;10341;49.894;8.822;2022-09-09T08:22:44;18.90;99.90
20366;DHT22;10341;49.894;8.822;2022-09-09T08:28:03;19.00;99.90
20366;DHT22;10341;49.894;8.822;2022-09-09T08:33:23;19.00;99.90
20366;DHT22;10341;49.894;8.822;2022-09-09T08:38:51;19.20;99.90
20366;DHT22;10341;49.894;8.822;2022-09-09T08:55:53;21.00;99.90
20366;DHT22;10341;49.894;8.822;2022-09-09T09:07:22;20.80;99.90
20366;DHT22;10341;49.894;8.822;2022-09-09T09:12:46;21.80;99.90
20366;DHT22;10341;49.894;8.822;2022-09-09T09:18:11;23.60;99.90
20366;DHT22;10341;49.894;8.822;2022-09-09T09:23:54;25.80;99.90
20366;DHT22;10341;49.894;8.822;2022-09-09T09:29:18;27.70;98.50
20366;DHT22;10341;49.894;8.822;2022-09-09T09:34:37;25.00;99.90
20366;DHT22;10341;49.894;8.822;2022-09-09T09:40:14;24.80;99.90
20366;DHT22;10341;49.894;8.822;2022-09-09T09:45:44;25.60;99.90
20366;DHT22;10341;49.894;8.822;2022-09-09T09:51:10;26.60;99.30
20366;DHT22;10341;49.894;8.822;2022-09-09T09:56:32;25.30;99.90
20366;DHT22;10341;49.894;8.822;2022-09-09T10:01:54;25.70;99.90
20366;DHT22;10341;49.894;8.822;2022-09-09T10:07:19;25.20;99.90
20366;DHT22;10341;49.894;8.822;2022-09-09T10:13:11;25.80;99.60
20366;DHT22;10341;49.894;8.822;2022-09-09T10:18:47;25.10;99.30
20366;DHT22;10341;49.894;8.822;2022-09-09T10:30:19;26.70;98.00
20366;DHT22;10341;49.894;8.822;2022-09-09T10:36:35;27.50;95.40
20366;DHT22;10341;49.894;8.822;2022-09-09T10:42:01;26.80;95.20
20366;DHT22;10341;49.894;8.822;2022-09-09T10:47:48;24.60;99.00
20366;DHT22;10341;49.894;8.822;2022-09-09T11:04:19;23.70;99.90
20366;DHT22;10341;49.894;8.822;2022-09-09T11:09:49;22.90;99.90
20366;DHT22;10341;49.894;8.822;2022-09-09T11:15:19;22.80;99.90
20366;DHT22;10341;49.894;8.822;2022-09-09T11:20:39;22.10;99.90
20366;DHT22;10341;49.894;8.822;2022-09-09T11:26:01;21.00;99.90
20366;DHT22;10341;49.894;8.822;2022-09-09T11:43:27;19.70;99.90
20366;DHT22;10341;49.894;8.822;2022-09-09T11:49:05;20.30;99.90
20366;DHT22;10341;49.894;8.822;2022-09-09T11:54:30;20.90;99.90
20366;DHT22;10341;49.894;8.822;2022-09-09T11:59:51;22.40;99.90
20366;DHT22;10341;49.894;8.822;2022-09-09T12:05:14;23.30;99.90
20366;DHT22;10341;49.894;8.822;2022-09-09T12:10:36;24.90;99.90
20366;DHT22;10341;49.894;8.822;2022-09-09T12:15:59;25.50;99.90
20366;DHT22;10341;49.894;8.822;2022-09-09T12:21:30;24.30;99.90
20366;DHT22;10341;49.894;8.822;2022-09-09T12:32:24;22.00;99.90
20366;DHT22;10341;49.894;8.822;2022-09-09T12:37:52;22.40;99.90
20366;DHT22;10341;49.894;8.822;2022-09-09T12:43:18;22.90;99.90
20366;DHT22;10341;49.894;8.822;2022-09-09T12:48:40;22.60;99.90
20366;DHT22;10341;49.894;8.822;2022-09-09T12:54:03;22.00;99.90
20366;DHT22;10341;49.894;8.822;2022-09-09T12:59:46;21.80;99.90
20366;DHT22;10341;49.894;8.822;2022-09-09T13:05:20;21.50;99.90
20366;DHT22;10341;49.894;8.822;2022-09-09T13:10:59;21.20;99.90
20366;DHT22;10341;49.894;8.822;2022-09-09T13:16:23;21.40;99.90
20366;DHT22;10341;49.894;8.822;2022-09-09T13:21:44;21.50;99.90
20366;DHT22;10341;49.894;8.822;2022-09-09T13:27:21;21.60;99.90
20366;DHT22;10341;49.894;8.822;2022-09-09T13:32:43;21.50;99.90
20366;DHT22;10341;49.894;8.822;2022-09-09T13:38:09;21.10;99.90
20366;DHT22;10341;49.894;8.822;2022-09-09T13:43:42;21.00;99.90
20366;DHT22;10341;49.894;8.822;2022-09-09T13:54:30;20.70;99.90
20366;DHT22;10341;49.894;8.822;2022-09-09T13:59:49;20.30;99.90
20366;DHT22;10341;49.894;8.822;2022-09-09T14:05:10;20.20;99.90
20366;DHT22;10341;49.894;8.822;2022-09-09T14:10:30;20.40;99.90
20366;DHT22;10341;49.894;8.822;2022-09-09T14:15:50;21.60;99.90
20366;DHT22;10341;49.894;8.822;2022-09-09T14:21:10;22.40;99.90
20366;DHT22;10341;49.894;8.822;2022-09-09T14:26:30;23.80;99.90
20366;DHT22;10341;49.894;8.822;2022-09-09T14:31:49;23.10;99.90
20366;DHT22;10341;49.894;8.822;2022-09-09T14:37:08;23.90;99.90
20366;DHT22;10341;49.894;8.822;2022-09-09T14:42:28;24.30;99.90
20366;DHT22;10341;49.894;8.822;2022-09-09T14:47:49;23.10;99.90
20366;DHT22;10341;49.894;8.822;2022-09-09T14:53:09;22.40;99.90
20366;DHT22;10341;49.894;8.822;2022-09-09T14:58:30;22.00;99.90
20366;DHT22;10341;49.894;8.822;2022-09-09T15:03:52;21.90;99.90
20366;DHT22;10341;49.894;8.822;2022-09-09T15:09:11;21.80;99.90
20366;DHT22;10341;49.894;8.822;2022-09-09T15:14:31;21.40;99.90
20366;DHT22;10341;49.894;8.822;2022-09-09T15:19:50;21.10;99.90
20366;DHT22;10341;49.894;8.822;2022-09-09T15:25:10;20.70;99.90
20366;DHT22;10341;49.894;8.822;2022-09-09T15:30:31;20.40;99.90
20366;DHT22;10341;49.894;8.822;2022-09-09T15:35:51;20.20;99.90
20366;DHT22;10341;49.894;8.822;2022-09-09T15:41:11;20.00;99.90
20366;DHT22;10341;49.894;8.822;2022-09-09T15:46:36;20.00;99.90
20366;DHT22;10341;49.894;8.822;2022-09-09T15:51:58;19.90;99.90
20366;DHT22;10341;49.894;8.822;2022-09-09T15:57:17;19.90;99.90
20366;DHT22;10341;49.894;8.822;2022-09-09T16:02:37;19.80;99.90
20366;DHT22;10341;49.894;8.822;2022-09-09T16:07:56;19.90;99.90
20366;DHT22;10341;49.894;8.822;2022-09-09T16:13:15;20.50;99.90
20366;DHT22;10341;49.894;8.822;2022-09-09T16:18:43;21.20;99.90
20366;DHT22;10341;49.894;8.822;2022-09-09T16:24:05;21.30;99.90
20366;DHT22;10341;49.894;8.822;2022-09-09T16:29:25;21.40;99.90
20366;DHT22;10341;49.894;8.822;2022-09-09T16:34:47;21.80;99.90
20366;DHT22;10341;49.894;8.822;2022-09-09T16:40:07;21.30;99.90
20366;DHT22;10341;49.894;8.822;2022-09-09T16:45:26;20.70;99.90
20366;DHT22;10341;49.894;8.822;2022-09-09T16:50:46;19.90;99.90
20366;DHT22;10341;49.894;8.822;2022-09-09T16:56:06;19.40;99.90
20366;DHT22;10341;49.894;8.822;2022-09-09T17:01:28;19.10;99.90
20366;DHT22;10341;49.894;8.822;2022-09-09T17:06:49;18.80;99.90
20366;DHT22;10341;49.894;8.822;2022-09-09T17:12:08;18.60;99.90
20366;DHT22;10341;49.894;8.822;2022-09-09T17:17:27;18.50;99.90
20366;DHT22;10341;49.894;8.822;2022-09-09T17:22:47;18.40;99.90
20366;DHT22;10341;49.894;8.822;2022-09-09T17:28:06;18.30;99.90
20366;DHT22;10341;49.894;8.822;2022-09-09T17:33:25;18.20;99.90
20366;DHT22;10341;49.894;8.822;2022-09-09T17:38:45;18.20;99.90
20366;DHT22;10341;49.894;8.822;2022-09-09T17:44:05;18.10;99.90
20366;DHT22;10341;49.894;8.822;2022-09-09T17:49:24;18.00;99.90
20366;DHT22;10341;49.894;8.822;2022-09-09T17:54:43;17.90;99.90
20366;DHT22;10341;49.894;8.822;2022-09-09T18:00:05;17.80;99.90
20366;DHT22;10341;49.894;8.822;2022-09-09T18:05:31;17.60;99.90
20366;DHT22;10341;49.894;8.822;2022-09-09T18:10:53;17.40;99.90
20366;DHT22;10341;49.894;8.822;2022-09-09T18:16:13;17.30;99.90
20366;DHT22;10341;49.894;8.822;2022-09-09T18:21:33;17.30;99.90
20366;DHT22;10341;49.894;8.822;2022-09-09T18:26:53;17.20;99.90
20366;DHT22;10341;49.894;8.822;2022-09-09T18:32:13;17.20;99.90
20366;DHT22;10341;49.894;8.822;2022-09-09T18:37:33;17.10;99.90
20366;DHT22;10341;49.894;8.822;2022-09-09T18:42:54;17.10;99.90
20366;DHT22;10341;49.894;8.822;2022-09-09T18:48:13;17.20;99.90
20366;DHT22;10341;49.894;8.822;2022-09-09T18:53:32;17.30;99.90
20366;DHT22;10341;49.894;8.822;2022-09-09T18:58:53;17.20;99.90
20366;DHT22;10341;49.894;8.822;2022-09-09T19:04:13;17.00;99.90
20366;DHT22;10341;49.894;8.822;2022-09-09T19:09:33;16.90;99.90
20366;DHT22;10341;49.894;8.822;2022-09-09T19:14:52;16.80;99.90
20366;DHT22;10341;49.894;8.822;2022-09-09T19:20:11;16.60;99.90
20366;DHT22;10341;49.894;8.822;2022-09-09T19:25:35;16.40;99.90
20366;DHT22;10341;49.894;8.822;2022-09-09T19:30:55;16.20;99.90
20366;DHT22;10341;49.894;8.822;2022-09-09T19:36:16;16.10;99.90
20366;DHT22;10341;49.894;8.822;2022-09-09T19:41:36;15.90;99.90
20366;DHT22;10341;49.894;8.822;2022-09-09T19:46:55;15.50;99.90
20366;DHT22;10341;49.894;8.822;2022-09-09T19:52:16;15.20;99.90
20366;DHT22;10341;49.894;8.822;2022-09-09T19:57:35;15.00;99.90
20366;DHT22;10341;49.894;8.822;2022-09-09T20:02:54;15.00;99.90
20366;DHT22;10341;49.894;8.822;2022-09-09T20:08:14;14.90;99.90
20366;DHT22;10341;49.894;8.822;2022-09-09T20:13:36;14.80;99.90
20366;DHT22;10341;49.894;8.822;2022-09-09T20:18:59;14.70;99.90
20366;DHT22;10341;49.894;8.822;2022-09-09T20:24:19;14.70;99.90
20366;DHT22;10341;49.894;8.822;2022-09-09T20:29:40;14.70;99.90
20366;DHT22;10341;49.894;8.822;2022-09-09T20:35:00;14.60;99.90
20366;DHT22;10341;49.894;8.822;2022-09-09T20:40:19;14.60;99.90
20366;DHT22;10341;49.894;8.822;2022-09-09T20:45:38;14.60;99.90
20366;DHT22;10341;49.894;8.822;2022-09-09T20:51:05;14.60;99.90
20366;DHT22;10341;49.894;8.822;2022-09-09T20:56:26;14.50;99.90
20366;DHT22;10341;49.894;8.822;2022-09-09T21:01:45;14.40;99.90
20366;DHT22;10341;49.894;8.822;2022-09-09T21:07:05;14.40;99.90
20366;DHT22;10341;49.894;8.822;2022-09-09T21:12:25;14.30;99.90
20366;DHT22;10341;49.894;8.822;2022-09-09T21:17:44;14.30;99.90
20366;DHT22;10341;49.894;8.822;2022-09-09T21:23:04;14.30;99.90
20366;DHT22;10341;49.894;8.822;2022-09-09T21:28:25;14.30;99.90
20366;DHT22;10341;49.894;8.822;2022-09-09T21:33:45;14.30;99.90
20366;DHT22;10341;49.894;8.822;2022-09-09T21:39:05;14.30;99.90
20366;DHT22;10341;49.894;8.822;2022-09-09T21:44:24;14.30;99.90
20366;DHT22;10341;49.894;8.822;2022-09-09T21:49:45;14.30;99.90
20366;DHT22;10341;49.894;8.822;2022-09-09T21:55:04;14.40;99.90
20366;DHT22;10341;49.894;8.822;2022-09-09T22:00:23;14.40;99.90
20366;DHT22;10341;49.894;8.822;2022-09-09T22:05:44;14.40;99.90
20366;DHT22;10341;49.894;8.822;2022-09-09T22:11:09;14.30;99.90
20366;DHT22;10341;49.894;8.822;2022-09-09T22:16:29;14.20;99.90
20366;DHT22;10341;49.894;8.822;2022-09-09T22:21:49;14.10;99.90
20366;DHT22;10341;49.894;8.822;2022-09-09T22:27:08;14.10;99.90
20366;DHT22;10341;49.894;8.822;2022-09-09T22:32:28;14.10;99.90
20366;DHT22;10341;49.894;8.822;2022-09-09T22:37:47;14.00;99.90
20366;DHT22;10341;49.894;8.822;2022-09-09T22:43:13;13.90;99.90
20366;DHT22;10341;49.894;8.822;2022-09-09T22:48:33;13.90;99.90
20366;DHT22;10341;49.894;8.822;2022-09-09T22:53:53;13.80;99.90
20366;DHT22;10341;49.894;8.822;2022-09-09T22:59:12;13.80;99.90
20366;DHT22;10341;49.894;8.822;2022-09-09T23:04:32;13.70;99.90
20366;DHT22;10341;49.894;8.822;2022-09-09T23:09:51;13.60;99.90
20366;DHT22;10341;49.894;8.822;2022-09-09T23:15:10;13.50;99.90
20366;DHT22;10341;49.894;8.822;2022-09-09T23:20:30;13.60;99.90
20366;DHT22;10341;49.894;8.822;2022-09-09T23:25:50;13.70;99.90
20366;DHT22;10341;49.894;8.822;2022-09-09T23:31:10;13.70;99.90
20366;DHT22;10341;49.894;8.822;2022-09-09T23:36:33;13.70;99.90
20366;DHT22;10341;49.894;8.822;2022-09-09T23:41:52;13.80;99.90
20366;DHT22;10341;49.894;8.822;2022-09-09T23:47:12;13.70;99.90
20366;DHT22;10341;49.894;8.822;2022-09-09T23:52:32;13.80;99.90
20366;DHT22;10341;49.894;8.822;2022-09-09T23:57:51;13.80;99.90
